NWWE

Île des Pins Airport

Île des Pins, New Caledonia
TAF NWWE 181700Z 1818/1918 14012KT 9999 SCT030 SCT050 TEMPO 1818/1824 4000 SHRA FEW020TCU
Issued Valid From Valid To
Jan-18 @ 17:00 UTC
(9 hours ago)
Jan-18 @ 18:00 UTC
(8 hours ago)
Jan-19 @ 18:00 UTC
(in 16 hours)
Jan-18 @ 18:00 to Jan-19 @ 18:00
TAF NWWE 181700Z 1818/1918 14012KT 9999 SCT030 SCT050
Wind Visibility Clouds
140° at 12 knots 10,000+ meters
  • Scattered at 3,000' AGL
  • Scattered at 5,000' AGL
Expired Click to View Jan-18 @ 18:00 to Jan-19 @ 00:00
TEMPO 1818/1824 4000 SHRA FEW020TCU
Visibility Clouds Conditions
4,007 meters
  • Few at 2,000' AGL
  • Rain
TAF NWWE 181700Z 1818/1918 14012KT 9999 SCT030 SCT050 TEMPO 1818/1824 4000 SHRA FEW020TCU
Issued Jan-18 @ 17:00 UTC
(9 hours ago)
Valid From Jan-18 @ 18:00 UTC
(8 hours ago)
Valid To Jan-19 @ 18:00 UTC
(in 16 hours)
Jan-18 @ 18:00 - Jan-19 @ 18:00
Wind Visibility
140° at 12 knots 10,000+ meters
Clouds
  • Scattered at 3,000' AGL
  • Scattered at 5,000' AGL
Jan-18 @ 18:00 - Jan-19 @ 00:00
Clouds
  • Few at 2,000' AGL
Conditions
  • Rain